Terminal Aerodrome Forecast
Issued by NWS Amarillo, TX

Home | Current Version | Previous Version | Text Only | Print | Product List | Glossary On
Versions: 1 2 3 4 5 6 7 8 9 10 11 12 13 14 15
000
FTUS44 KAMA 050520
TAFGUY
TAF
KGUY 050520Z 0506/0606 16008KT P6SM SCT300
     FM050900 24006KT P6SM SKC
     FM051300 01009KT P6SM SKC
     FM052000 08008KT P6SM SKC=

USA.gov is the U.S. government's official web portal to all federal, state and local government web resources and services.